createdAt,value
2023-03-06T00:00:34.572Z,100931.06
2023-03-06T00:01:08.725Z,100935.34
2023-03-06T00:01:40.322Z,100932.97
2023-03-06T00:02:11.841Z,100939.13
2023-03-06T00:02:44.231Z,100932.16
2023-03-06T00:03:16.453Z,100930.09
2023-03-06T00:03:48.175Z,100928.22
2023-03-06T00:04:19.657Z,100929.00
2023-03-06T00:04:51.106Z,100930.91
2023-03-06T00:05:22.714Z,100928.22
2023-03-06T00:05:57.084Z,100928.84
2023-03-06T00:06:28.694Z,100930.09
2023-03-06T00:07:00.120Z,100928.22
2023-03-06T00:07:31.455Z,100930.44
2023-03-06T00:08:03.595Z,100923.94
2023-03-06T00:08:35.027Z,100925.34
2023-03-06T00:09:06.461Z,100917.28
2023-03-06T00:09:38.510Z,100921.09
2023-03-06T00:10:15.471Z,100919.19
2023-03-06T00:10:46.956Z,100913.34
2023-03-06T00:11:18.300Z,100924.09
2023-03-06T00:11:49.647Z,100920.94
2023-03-06T00:12:21.009Z,100921.72
2023-03-06T00:12:54.122Z,100916.34
2023-03-06T00:13:26.733Z,100922.81
2023-03-06T00:13:58.363Z,100918.56
2023-03-06T00:14:29.815Z,100923.16
2023-03-06T00:15:01.507Z,100920.00
2023-03-06T00:15:33.311Z,100923.50
2023-03-06T00:16:07.140Z,100921.91
2023-03-06T00:16:38.751Z,100919.22
2023-03-06T00:17:10.151Z,100921.91
2023-03-06T00:17:41.748Z,100916.84
2023-03-06T00:18:13.748Z,100921.13
2023-03-06T00:18:45.118Z,100920.63
2023-03-06T00:19:16.579Z,100918.75
2023-03-06T00:19:47.965Z,100915.25
2023-03-06T00:20:20.793Z,100919.84
2023-03-06T00:20:52.197Z,100912.88
2023-03-06T00:21:23.590Z,100910.19
2023-03-06T00:21:55.297Z,100903.56
2023-03-06T00:22:26.874Z,100910.50
2023-03-06T00:22:58.310Z,100908.13
2023-03-06T00:23:29.711Z,100910.50
2023-03-06T00:24:01.232Z,100908.13
2023-03-06T00:24:32.598Z,100898.50
2023-03-06T00:25:05.074Z,100907.34
2023-03-06T00:25:38.589Z,100910.03
2023-03-06T00:26:10.245Z,100897.69
2023-03-06T00:26:41.807Z,100902.28
2023-03-06T00:27:13.340Z,100902.59
2023-03-06T00:27:45.191Z,100899.59
2023-03-06T00:28:17.665Z,100896.13
2023-03-06T00:28:49.140Z,100896.44
2023-03-06T00:29:20.613Z,100895.63
2023-03-06T00:29:56.363Z,100899.91
2023-03-06T00:30:27.775Z,100894.84
2023-03-06T00:31:00.423Z,100896.75
2023-03-06T00:31:31.847Z,100891.69
2023-03-06T00:32:03.408Z,100887.88
2023-03-06T00:32:34.817Z,100896.28
2023-03-06T00:33:06.381Z,100895.47
2023-03-06T00:33:37.770Z,100894.69
2023-03-06T00:34:09.340Z,100896.28
2023-03-06T00:34:40.691Z,100889.31
2023-03-06T00:35:12.979Z,100892.00
2023-03-06T00:35:44.428Z,100895.03
2023-03-06T00:36:15.944Z,100886.16
2023-03-06T00:36:47.302Z,100885.69
2023-03-06T00:37:19.139Z,100895.47
2023-03-06T00:37:50.493Z,100891.22
2023-03-06T00:38:22.026Z,100892.34
2023-03-06T00:38:53.625Z,100889.31
2023-03-06T00:39:25.042Z,100889.66
2023-03-06T00:39:56.473Z,100878.41
2023-03-06T00:40:27.942Z,100890.75
2023-03-06T00:40:59.742Z,100887.72
2023-03-06T00:41:31.061Z,100881.59
2023-03-06T00:42:02.425Z,100872.72
2023-03-06T00:42:33.831Z,100880.78
2023-03-06T00:43:05.391Z,100880.00
2023-03-06T00:43:37.298Z,100878.91
2023-03-06T00:44:08.714Z,100871.47
2023-03-06T00:44:40.101Z,100870.34
2023-03-06T00:45:12.129Z,100869.88
2023-03-06T00:45:43.546Z,100867.66
2023-03-06T00:46:14.967Z,100863.72
2023-03-06T00:46:46.540Z,100867.97
2023-03-06T00:47:18.137Z,100866.06
2023-03-06T00:47:49.568Z,100859.75
2023-03-06T00:48:21.235Z,100858.16
2023-03-06T00:48:52.664Z,100858.97
2023-03-06T00:49:24.048Z,100858.97
2023-03-06T00:49:55.523Z,100864.03
2023-03-06T00:50:27.037Z,100863.88
2023-03-06T00:50:58.605Z,100864.34
2023-03-06T00:51:30.035Z,100866.72
2023-03-06T00:52:01.714Z,100861.34
2023-03-06T00:52:33.506Z,100865.13
2023-03-06T00:53:04.907Z,100862.44
2023-03-06T00:53:36.350Z,100861.66
2023-03-06T00:54:07.723Z,100861.97
2023-03-06T00:54:39.581Z,100859.28
2023-03-06T00:55:11.068Z,100860.38
2023-03-06T00:55:45.708Z,100867.34
2023-03-06T00:56:19.609Z,100866.56
2023-03-06T00:56:51.362Z,100860.38
2023-03-06T00:57:22.937Z,100858.81
2023-03-06T00:57:54.381Z,100858.00
2023-03-06T00:58:25.761Z,100850.25
2023-03-06T00:58:57.176Z,100861.81
2023-03-06T00:59:28.550Z,100860.69
2023-03-06T01:00:00.003Z,100855.94
2023-03-06T01:00:31.692Z,100850.56
2023-03-06T01:01:03.890Z,100853.75
2023-03-06T01:01:35.532Z,100857.22
2023-03-06T01:02:07.080Z,100852.94
2023-03-06T01:02:38.622Z,100857.53
2023-03-06T01:03:10.209Z,100852.16
2023-03-06T01:03:41.679Z,100857.22
2023-03-06T01:04:13.329Z,100852.94
2023-03-06T01:04:44.894Z,100850.09
2023-03-06T01:05:16.614Z,100851.84
2023-03-06T01:05:48.083Z,100846.78
2023-03-06T01:06:19.438Z,100843.63
2023-03-06T01:06:50.941Z,100852.16
2023-03-06T01:07:22.668Z,100839.03
2023-03-06T01:07:54.045Z,100842.81
2023-03-06T01:08:25.473Z,100841.72
2023-03-06T01:08:57.083Z,100848.69
2023-03-06T01:09:29.200Z,100839.81
2023-03-06T01:10:00.677Z,100838.56
2023-03-06T01:10:32.570Z,100843.28
2023-03-06T01:11:04.110Z,100840.94
2023-03-06T01:11:35.528Z,100845.19
2023-03-06T01:12:07.486Z,100834.75
2023-03-06T01:12:38.959Z,100837.44
2023-03-06T01:13:10.607Z,100831.59
2023-03-06T01:13:42.160Z,100835.88
2023-03-06T01:14:13.573Z,100833.97
2023-03-06T01:14:45.381Z,100831.59
2023-03-06T01:15:16.786Z,100841.25
2023-03-06T01:15:48.182Z,100837.75
2023-03-06T01:16:21.124Z,100833.16
2023-03-06T01:16:53.497Z,100834.63
2023-03-06T01:17:24.888Z,100836.97
2023-03-06T01:17:56.365Z,100833.16
2023-03-06T01:18:27.870Z,100833.97
2023-03-06T01:18:59.599Z,100837.44
2023-03-06T01:19:31.023Z,100830.47
2023-03-06T01:20:02.611Z,100833.66
2023-03-06T01:20:34.184Z,100822.41
2023-03-06T01:21:06.255Z,100830.97
2023-03-06T01:21:37.719Z,100832.06
2023-03-06T01:22:09.110Z,100828.28
2023-03-06T01:22:40.598Z,100822.41
2023-03-06T01:23:12.003Z,100824.78
2023-03-06T01:23:43.649Z,100826.22
2023-03-06T01:24:15.118Z,100826.22
2023-03-06T01:24:46.473Z,100821.97
2023-03-06T01:25:18.002Z,100824.97
2023-03-06T01:25:49.398Z,100827.34
2023-03-06T01:26:20.810Z,100824.19
2023-03-06T01:26:52.318Z,100818.34
2023-03-06T01:27:23.678Z,100829.56
2023-03-06T01:27:55.182Z,100825.28
2023-03-06T01:28:26.918Z,100829.56
2023-03-06T01:28:58.561Z,100819.28
2023-03-06T01:29:30.210Z,100827.19
2023-03-06T01:30:01.959Z,100826.41
2023-03-06T01:30:33.374Z,100831.00
2023-03-06T01:31:05.666Z,100829.88
2023-03-06T01:31:37.409Z,100824.50
2023-03-06T01:32:08.798Z,100820.56
2023-03-06T01:32:40.347Z,100832.56
2023-03-06T01:33:11.949Z,100827.50
2023-03-06T01:33:43.499Z,100831.31
2023-03-06T01:34:15.014Z,100828.31
2023-03-06T01:34:46.397Z,100827.03
2023-03-06T01:35:18.662Z,100822.91
2023-03-06T01:35:50.081Z,100820.06
2023-03-06T01:36:21.620Z,100823.25
2023-03-06T01:36:53.001Z,100822.91
2023-03-06T01:37:24.395Z,100822.75
2023-03-06T01:37:55.788Z,100827.50
2023-03-06T01:38:27.217Z,100829.41
2023-03-06T01:38:58.650Z,100827.81
2023-03-06T01:39:31.692Z,100824.34
2023-03-06T01:40:03.822Z,100827.03
2023-03-06T01:40:37.826Z,100834.00
2023-03-06T01:41:10.894Z,100828.94
2023-03-06T01:41:42.236Z,100830.34
2023-03-06T01:42:13.929Z,100829.25
2023-03-06T01:42:46.860Z,100837.31
2023-03-06T01:43:29.009Z,100831.94
2023-03-06T01:44:00.687Z,100826.09
2023-03-06T01:44:32.420Z,100833.84
2023-03-06T01:45:09.717Z,100829.56
2023-03-06T01:45:41.110Z,100830.34
2023-03-06T01:46:46.311Z,100834.94
2023-03-06T01:47:17.780Z,100831.78
2023-03-06T01:47:49.256Z,100836.03
2023-03-06T01:48:23.378Z,100829.41
2023-03-06T01:49:02.684Z,100828.31
2023-03-06T01:49:38.102Z,100830.19
2023-03-06T01:50:12.759Z,100823.22
2023-03-06T01:50:44.354Z,100821.19
2023-03-06T01:51:16.033Z,100830.03
2023-03-06T01:52:08.932Z,100824.22
2023-03-06T01:52:52.534Z,100824.53
2023-03-06T01:53:24.320Z,100824.53
2023-03-06T01:53:57.891Z,100824.84
2023-03-06T01:54:37.892Z,100822.16
2023-03-06T01:55:14.093Z,100821.69
2023-03-06T01:55:45.810Z,100817.88
2023-03-06T01:56:17.343Z,100819.00
2023-03-06T01:56:51.342Z,100819.00
2023-03-06T01:57:30.629Z,100816.31
2023-03-06T01:58:07.039Z,100807.28
2023-03-06T01:58:39.042Z,100811.25
2023-03-06T01:59:10.802Z,100819.63
2023-03-06T02:00:32.378Z,100807.28
2023-03-06T02:01:04.360Z,100810.75
2023-03-06T02:01:39.770Z,100812.19
2023-03-06T02:02:14.595Z,100811.09
2023-03-06T02:02:52.756Z,100814.56
2023-03-06T02:03:26.930Z,100807.91
2023-03-06T02:04:00.847Z,100807.91
2023-03-06T02:04:33.684Z,100804.44
2023-03-06T02:05:07.239Z,100803.66
2023-03-06T02:05:40.557Z,100800.00
2023-03-06T02:06:12.018Z,100804.28
2023-03-06T02:06:43.774Z,100809.97
2023-03-06T02:07:18.749Z,100799.22
2023-03-06T02:07:51.634Z,100803.81
2023-03-06T02:08:24.341Z,100805.38
2023-03-06T02:08:56.214Z,100795.59
2023-03-06T02:09:30.165Z,100795.59
2023-03-06T02:10:01.896Z,100799.56
2023-03-06T02:10:33.472Z,100795.13
2023-03-06T02:11:25.663Z,100793.72
2023-03-06T02:11:57.703Z,100795.91
2023-03-06T02:12:29.319Z,100788.66
2023-03-06T02:13:00.933Z,100791.03
2023-03-06T02:13:32.627Z,100792.13
2023-03-06T02:14:04.267Z,100791.34
2023-03-06T02:14:36.284Z,100797.50
2023-03-06T02:15:07.805Z,100792.13
2023-03-06T02:15:39.459Z,100789.75
2023-03-06T02:16:11.881Z,100792.44
2023-03-06T02:16:44.106Z,100783.59
2023-03-06T02:17:18.332Z,100789.75
2023-03-06T02:17:51.572Z,100792.75
2023-03-06T02:18:23.187Z,100792.75
2023-03-06T02:18:55.211Z,100792.75
2023-03-06T02:20:03.895Z,100788.50
2023-03-06T02:20:46.088Z,100789.59
2023-03-06T02:21:25.552Z,100789.13
2023-03-06T02:21:57.068Z,100776.31
2023-03-06T02:22:39.054Z,100779.47
2023-03-06T02:23:28.294Z,100791.81
2023-03-06T02:24:13.768Z,100793.69
2023-03-06T02:24:59.769Z,100788.63
2023-03-06T02:25:42.108Z,100799.38
2023-03-06T02:26:14.226Z,100789.75
2023-03-06T02:26:47.698Z,100795.13
2023-03-06T02:27:20.374Z,100791.63
2023-03-06T02:27:51.755Z,100789.28
2023-03-06T02:28:24.471Z,100790.06
2023-03-06T02:28:58.423Z,100789.28
2023-03-06T02:29:30.397Z,100791.16
2023-03-06T02:30:06.719Z,100786.28
2023-03-06T02:30:38.668Z,100787.06
2023-03-06T02:31:21.452Z,100788.16
2023-03-06T02:31:52.915Z,100783.91
2023-03-06T02:32:24.397Z,100773.47
2023-03-06T02:32:56.843Z,100774.25
2023-03-06T02:33:29.428Z,100781.53
2023-03-06T02:34:02.086Z,100787.38
2023-03-06T02:34:39.306Z,100783.91
2023-03-06T02:35:25.974Z,100779.63
2023-03-06T02:36:10.371Z,100787.38
2023-03-06T02:36:45.978Z,100780.41
2023-03-06T02:37:17.566Z,100783.41
2023-03-06T02:37:49.549Z,100778.34
2023-03-06T02:38:24.780Z,100774.25
2023-03-06T02:38:57.067Z,100774.56
2023-03-06T02:39:33.500Z,100776.94
2023-03-06T02:40:12.194Z,100777.72
2023-03-06T02:40:46.923Z,100778.03
2023-03-06T02:41:18.593Z,100771.88
2023-03-06T02:41:50.103Z,100773.78
2023-03-06T02:42:25.130Z,100780.72
2023-03-06T02:42:58.337Z,100779.16
2023-03-06T02:43:34.331Z,100773.78
2023-03-06T02:44:05.880Z,100762.59
2023-03-06T02:44:37.406Z,100779.16
2023-03-06T02:45:12.184Z,100768.41
2023-03-06T02:45:49.757Z,100771.56
2023-03-06T02:46:21.309Z,100768.09
2023-03-06T02:46:52.792Z,100769.19
2023-03-06T02:47:24.390Z,100768.88
2023-03-06T02:47:55.830Z,100770.00
2023-03-06T02:48:27.308Z,100767.28
2023-03-06T02:48:58.678Z,100767.78
2023-03-06T02:49:30.032Z,100765.72
2023-03-06T02:50:01.515Z,100760.81
2023-03-06T02:50:33.019Z,100757.34
2023-03-06T02:51:04.656Z,100758.94
2023-03-06T02:51:36.109Z,100762.41
2023-03-06T02:52:07.990Z,100753.06
2023-03-06T02:52:39.432Z,100763.97
2023-03-06T02:53:13.121Z,100763.97
2023-03-06T02:53:44.603Z,100757.03
2023-03-06T02:54:18.279Z,100754.03
2023-03-06T02:54:49.676Z,100759.41
2023-03-06T02:55:21.265Z,100756.41
2023-03-06T02:55:52.738Z,100753.25
2023-03-06T02:56:24.190Z,100757.50
2023-03-06T02:56:55.575Z,100750.06
2023-03-06T02:57:26.965Z,100754.81
2023-03-06T02:57:58.464Z,100751.34
2023-03-06T02:58:29.866Z,100749.75
2023-03-06T02:59:01.310Z,100751.81
2023-03-06T02:59:33.096Z,100746.44
2023-03-06T03:00:05.663Z,100748.81
2023-03-06T03:00:37.151Z,100747.22
2023-03-06T03:01:08.751Z,100741.06
2023-03-06T03:01:40.145Z,100742.97
2023-03-06T03:02:11.647Z,100748.34
2023-03-06T03:02:43.918Z,100740.59
2023-03-06T03:03:15.766Z,100747.22
2023-03-06T03:03:47.175Z,100740.28
2023-03-06T03:04:18.758Z,100736.31
2023-03-06T03:04:50.574Z,100734.91
2023-03-06T03:05:22.174Z,100734.13
2023-03-06T03:05:53.578Z,100731.44
2023-03-06T03:06:24.989Z,100729.53
2023-03-06T03:06:56.356Z,100735.69
2023-03-06T03:07:27.793Z,100730.31
2023-03-06T03:07:59.180Z,100736.50
2023-03-06T03:08:30.611Z,100736.50
2023-03-06T03:09:02.015Z,100733.00
2023-03-06T03:09:36.867Z,100731.13
2023-03-06T03:10:09.028Z,100733.47
2023-03-06T03:10:40.475Z,100732.38
2023-03-06T03:11:12.628Z,100724.78
2023-03-06T03:11:43.969Z,100727.31
2023-03-06T03:12:15.327Z,100733.66
2023-03-06T03:12:46.751Z,100727.16
2023-03-06T03:13:19.543Z,100725.25
2023-03-06T03:13:50.898Z,100724.47
2023-03-06T03:14:25.063Z,100722.59
2023-03-06T03:14:56.730Z,100721.47
2023-03-06T03:15:28.294Z,100721.00
2023-03-06T03:16:08.903Z,100718.47
2023-03-06T03:16:40.310Z,100721.94
2023-03-06T03:17:11.734Z,100719.25
2023-03-06T03:17:43.595Z,100712.00
2023-03-06T03:18:15.029Z,100716.56
2023-03-06T03:18:48.067Z,100717.38
2023-03-06T03:19:19.747Z,100713.09
2023-03-06T03:19:51.853Z,100709.31
2023-03-06T03:20:23.545Z,100712.00
2023-03-06T03:20:55.466Z,100710.41
2023-03-06T03:21:27.578Z,100717.81
2023-03-06T03:21:59.091Z,100712.44
2023-03-06T03:22:30.758Z,100715.91
2023-03-06T03:23:02.213Z,100709.75
2023-03-06T03:23:33.718Z,100712.44
2023-03-06T03:24:05.360Z,100705.81
2023-03-06T03:24:36.716Z,100714.31
2023-03-06T03:25:08.851Z,100709.75
2023-03-06T03:25:40.235Z,100713.56
2023-03-06T03:26:14.532Z,100709.75
2023-03-06T03:26:45.950Z,100713.22
2023-03-06T03:27:17.423Z,100706.28
2023-03-06T03:27:48.834Z,100714.31
2023-03-06T03:28:20.284Z,100693.19
2023-03-06T03:28:51.739Z,100699.66
2023-03-06T03:29:23.344Z,100695.50
2023-03-06T03:29:57.419Z,100699.34
2023-03-06T03:30:28.868Z,100708.63
2023-03-06T03:31:05.318Z,100704.06
2023-03-06T03:31:37.097Z,100703.25
2023-03-06T03:32:08.750Z,100697.56
2023-03-06T03:32:40.188Z,100702.16
2023-03-06T03:33:11.882Z,100702.16
2023-03-06T03:33:43.307Z,100701.03
2023-03-06T03:34:15.014Z,100697.09
2023-03-06T03:34:46.384Z,100700.25
2023-03-06T03:35:17.990Z,100691.72
2023-03-06T03:35:57.057Z,100696.00
2023-03-06T03:36:28.617Z,100699.47
2023-03-06T03:37:00.025Z,100698.34
2023-03-06T03:37:31.457Z,100692.19
2023-03-06T03:38:03.447Z,100696.47
2023-03-06T03:38:35.500Z,100697.25
2023-03-06T03:39:07.482Z,100698.84
2023-03-06T03:39:38.886Z,100697.25
2023-03-06T03:40:11.082Z,100696.94
2023-03-06T03:40:42.420Z,100694.25
2023-03-06T03:41:13.888Z,100695.34
2023-03-06T03:41:45.525Z,100696.16
2023-03-06T03:42:17.001Z,100688.09
2023-03-06T03:42:48.404Z,100692.34
2023-03-06T03:43:20.214Z,100690.44
2023-03-06T03:43:51.709Z,100690.44
2023-03-06T03:44:23.391Z,100684.28
2023-03-06T03:44:54.772Z,100684.28
2023-03-06T03:45:26.213Z,100692.81
2023-03-06T03:45:57.642Z,100685.06
2023-03-06T03:46:29.461Z,100695.03
2023-03-06T03:47:00.884Z,100688.56
2023-03-06T03:47:32.289Z,100683.19
2023-03-06T03:48:03.797Z,100690.94
2023-03-06T03:48:35.225Z,100681.75
2023-03-06T03:49:55.622Z,100688.25
2023-03-06T03:50:27.123Z,100687.44
2023-03-06T03:51:13.112Z,100682.88
2023-03-06T03:51:45.022Z,100681.59
2023-03-06T03:52:16.459Z,100684.75
2023-03-06T03:52:47.905Z,100682.88
2023-03-06T03:53:19.277Z,100676.69
2023-03-06T03:53:50.923Z,100675.13
2023-03-06T03:54:22.283Z,100679.38
2023-03-06T03:54:53.689Z,100682.06
2023-03-06T03:55:25.377Z,100676.69
2023-03-06T03:55:56.732Z,100675.13
2023-03-06T03:56:28.127Z,100680.19
2023-03-06T03:56:59.542Z,100678.28
2023-03-06T03:57:31.520Z,100677.81
2023-03-06T03:58:02.979Z,100681.75
2023-03-06T03:58:34.418Z,100677.81
2023-03-06T03:59:05.821Z,100673.53
2023-03-06T03:59:37.530Z,100673.22
2023-03-06T04:00:11.933Z,100673.22
2023-03-06T04:00:43.276Z,100676.69
2023-03-06T04:01:14.646Z,100689.03
2023-03-06T04:01:46.264Z,100685.22
2023-03-06T04:02:17.876Z,100680.97
2023-03-06T04:02:49.526Z,100682.53
2023-03-06T04:03:21.023Z,100685.22
2023-03-06T04:03:52.404Z,100680.66
2023-03-06T04:04:23.826Z,100685.22
2023-03-06T04:04:55.365Z,100682.53
2023-03-06T04:05:26.740Z,100681.44
2023-03-06T04:05:58.504Z,100678.28
2023-03-06T04:06:30.170Z,100681.13
2023-03-06T04:07:01.800Z,100676.53
2023-03-06T04:07:33.259Z,100672.91
2023-03-06T04:08:05.448Z,100680.00
2023-03-06T04:08:36.842Z,100675.44
2023-03-06T04:09:08.238Z,100681.59
2023-03-06T04:09:39.627Z,100680.00
2023-03-06T04:10:12.501Z,100680.47
2023-03-06T04:10:43.896Z,100669.56
2023-03-06T04:11:15.823Z,100677.78
2023-03-06T04:11:47.230Z,100677.78
2023-03-06T04:12:18.574Z,100673.06
2023-03-06T04:12:50.000Z,100675.44
2023-03-06T04:13:22.467Z,100669.72
2023-03-06T04:13:53.929Z,100670.03
2023-03-06T04:14:25.409Z,100662.63
2023-03-06T04:14:56.812Z,100658.34
2023-03-06T04:15:28.334Z,100668.16
2023-03-06T04:16:00.240Z,100657.25
2023-03-06T04:16:31.822Z,100664.66
2023-03-06T04:17:03.255Z,100665.47
2023-03-06T04:17:34.991Z,100662.31
2023-03-06T04:18:06.702Z,100658.50
2023-03-06T04:18:38.078Z,100660.88
2023-03-06T04:19:09.444Z,100667.84
2023-03-06T04:19:40.818Z,100655.03
2023-03-06T04:20:12.425Z,100658.19
2023-03-06T04:20:45.419Z,100665.63
2023-03-06T04:21:16.797Z,100672.22
2023-03-06T04:21:48.307Z,100667.94
2023-03-06T04:22:19.746Z,100665.25
2023-03-06T04:22:51.333Z,100660.25
2023-03-06T04:23:24.217Z,100668.75
2023-03-06T04:23:55.630Z,100658.00
2023-03-06T04:24:27.009Z,100658.78
2023-03-06T04:24:58.435Z,100660.34
2023-03-06T04:25:29.862Z,100662.25
2023-03-06T04:26:01.259Z,100661.94
2023-03-06T04:26:32.751Z,100659.25
2023-03-06T04:27:04.404Z,100655.31
2023-03-06T04:27:36.101Z,100657.34
2023-03-06T04:28:08.046Z,100656.09
2023-03-06T04:28:39.411Z,100661.16
2023-03-06T04:29:10.778Z,100652.28
2023-03-06T04:29:42.169Z,100652.19
2023-03-06T04:30:13.791Z,100648.03
2023-03-06T04:30:45.198Z,100650.88
2023-03-06T04:31:16.631Z,100654.34
2023-03-06T04:31:48.103Z,100646.59
2023-03-06T04:32:21.428Z,100653.56
2023-03-06T04:32:53.026Z,100645.81
2023-03-06T04:33:24.456Z,100651.34
2023-03-06T04:33:55.836Z,100648.97
2023-03-06T04:34:27.419Z,100648.19
2023-03-06T04:34:58.758Z,100651.34
2023-03-06T04:35:30.432Z,100652.44
2023-03-06T04:36:01.882Z,100656.72
2023-03-06T04:36:34.859Z,100653.56
2023-03-06T04:37:06.246Z,100648.19
2023-03-06T04:37:37.639Z,100648.19
2023-03-06T04:38:09.154Z,100646.28
2023-03-06T04:38:40.599Z,100644.38
2023-03-06T04:39:13.124Z,100639.00
2023-03-06T04:39:44.460Z,100647.06
2023-03-06T04:40:21.691Z,100639.78
2023-03-06T04:40:53.325Z,100637.75
2023-03-06T04:41:25.063Z,100637.75
2023-03-06T04:42:45.630Z,100645.97
2023-03-06T04:43:17.011Z,100642.94
2023-03-06T04:43:48.410Z,100642.47
2023-03-06T04:44:19.794Z,100644.84
2023-03-06T04:44:51.226Z,100639.78
2023-03-06T04:45:23.218Z,100641.06
2023-03-06T04:45:54.659Z,100647.53
2023-03-06T04:46:26.136Z,100643.72
2023-03-06T04:46:57.515Z,100644.06
2023-03-06T04:47:28.914Z,100638.38
2023-03-06T04:48:01.032Z,100643.72
2023-03-06T04:48:32.508Z,100640.56
2023-03-06T04:49:04.120Z,100648.00
2023-03-06T04:49:35.630Z,100641.06
2023-03-06T04:50:07.424Z,100637.56
2023-03-06T04:50:38.812Z,100635.19
2023-03-06T04:51:14.234Z,100634.88
2023-03-06T04:51:45.616Z,100637.72
2023-03-06T04:52:16.957Z,100630.94
2023-03-06T04:52:48.438Z,100636.94
2023-03-06T04:53:21.320Z,100643.41
2023-03-06T04:53:52.771Z,100635.34
2023-03-06T04:54:24.196Z,100623.34
2023-03-06T04:54:55.700Z,100635.34
2023-03-06T04:55:28.023Z,100637.72
2023-03-06T04:55:59.536Z,100630.75
2023-03-06T04:56:31.241Z,100633.44
2023-03-06T04:57:02.803Z,100632.34
2023-03-06T04:57:37.234Z,100628.06
2023-03-06T04:58:11.246Z,100628.06
2023-03-06T04:58:43.968Z,100626.63
2023-03-06T04:59:15.627Z,100621.13
2023-03-06T04:59:47.009Z,100625.06
2023-03-06T05:00:21.563Z,100630.91
2023-03-06T05:00:53.119Z,100626.31
2023-03-06T05:01:24.598Z,100630.91
2023-03-06T05:01:56.495Z,100629.00
2023-03-06T05:02:28.032Z,100627.44
2023-03-06T05:03:00.921Z,100630.13
2023-03-06T05:03:32.429Z,100624.75
2023-03-06T05:04:04.102Z,100630.13
2023-03-06T05:04:35.609Z,100630.91
2023-03-06T05:05:07.572Z,100632.03
2023-03-06T05:05:39.005Z,100626.31
2023-03-06T05:06:10.468Z,100624.75
2023-03-06T05:06:41.953Z,100621.59
2023-03-06T05:07:13.327Z,100627.44
2023-03-06T05:07:45.147Z,100628.53
2023-03-06T05:08:16.905Z,100625.84
2023-03-06T05:08:48.248Z,100637.19
2023-03-06T05:09:19.741Z,100626.44
2023-03-06T05:09:51.343Z,100626.44
2023-03-06T05:10:23.330Z,100633.88
2023-03-06T05:11:01.716Z,100631.19
2023-03-06T05:11:33.123Z,100630.38
2023-03-06T05:12:04.766Z,100630.38
2023-03-06T05:12:37.419Z,100627.06
2023-03-06T05:13:09.316Z,100625.00
2023-03-06T05:13:40.685Z,100633.53
2023-03-06T05:14:12.316Z,100632.75
2023-03-06T05:14:45.654Z,100628.16
2023-03-06T05:15:18.636Z,100634.34
2023-03-06T05:15:50.167Z,100625.47
2023-03-06T05:16:21.658Z,100619.63
2023-03-06T05:16:53.080Z,100615.38
2023-03-06T05:17:24.471Z,100627.06
2023-03-06T05:17:56.418Z,100622.31
2023-03-06T05:18:28.008Z,100616.94
2023-03-06T05:18:59.533Z,100623.56
2023-03-06T05:19:31.314Z,100625.16
2023-03-06T05:20:06.393Z,100619.00
2023-03-06T05:20:37.807Z,100629.09
2023-03-06T05:21:09.193Z,100624.84
2023-03-06T05:21:40.577Z,100618.66
2023-03-06T05:22:11.960Z,100623.72
2023-03-06T05:22:44.020Z,100621.03
2023-03-06T05:23:15.471Z,100621.03
2023-03-06T05:23:47.724Z,100622.94
2023-03-06T05:24:19.064Z,100625.28
2023-03-06T05:24:50.684Z,100631.47
2023-03-06T05:25:22.015Z,100624.50
2023-03-06T05:25:53.396Z,100623.41
2023-03-06T05:26:24.801Z,100622.59
2023-03-06T05:26:56.198Z,100623.06
2023-03-06T05:27:28.370Z,100626.09
2023-03-06T05:27:59.818Z,100616.59
2023-03-06T05:28:31.153Z,100630.81
2023-03-06T05:29:02.515Z,100616.91
2023-03-06T05:29:33.906Z,100620.84
2023-03-06T05:30:05.975Z,100625.13
2023-03-06T05:30:37.440Z,100618.16
2023-03-06T05:31:08.955Z,100619.28
2023-03-06T05:31:40.372Z,100617.69
2023-03-06T05:32:12.026Z,100618.50
2023-03-06T05:32:43.994Z,100618.16
2023-03-06T05:33:15.461Z,100621.66
2023-03-06T05:33:46.854Z,100626.69
2023-03-06T05:34:18.256Z,100624.00
2023-03-06T05:34:49.861Z,100620.06
2023-03-06T05:35:23.479Z,100617.06
2023-03-06T05:35:54.880Z,100608.50
2023-03-06T05:36:26.660Z,100615.94
2023-03-06T05:36:58.014Z,100612.78
2023-03-06T05:37:29.782Z,100623.69
2023-03-06T05:38:01.377Z,100612.13
2023-03-06T05:38:32.801Z,100618.63
2023-03-06T05:39:04.231Z,100620.69
2023-03-06T05:39:35.969Z,100611.34
2023-03-06T05:40:09.637Z,100613.72
2023-03-06T05:40:41.870Z,100612.59
2023-03-06T05:41:14.022Z,100607.97
2023-03-06T05:41:45.385Z,100609.91
2023-03-06T05:42:16.824Z,100607.88
2023-03-06T05:42:48.289Z,100608.78
2023-03-06T05:43:20.414Z,100613.84
2023-03-06T05:43:53.132Z,100604.97
2023-03-06T05:44:24.484Z,100608.78
2023-03-06T05:44:55.901Z,100612.41
2023-03-06T05:45:27.294Z,100606.56
2023-03-06T05:46:03.714Z,100608.13
2023-03-06T05:46:35.088Z,100604.97
2023-03-06T05:47:06.518Z,100613.50
2023-03-06T05:47:37.892Z,100610.81
2023-03-06T05:48:12.331Z,100608.91
2023-03-06T05:48:45.305Z,100606.56
2023-03-06T05:49:17.883Z,100604.66
2023-03-06T05:49:49.414Z,100606.56
2023-03-06T05:50:20.798Z,100606.88
2023-03-06T05:50:59.317Z,100610.81
2023-03-06T05:51:30.736Z,100607.34
2023-03-06T05:52:04.159Z,100606.56
2023-03-06T05:52:35.920Z,100604.97
2023-03-06T05:53:07.246Z,100605.75
2023-03-06T05:53:38.673Z,100610.81
2023-03-06T05:54:10.070Z,100597.56
2023-03-06T05:54:41.657Z,100604.19
2023-03-06T05:55:13.362Z,100606.09
2023-03-06T05:55:44.826Z,100609.25
2023-03-06T05:56:16.635Z,100603.75
2023-03-06T05:56:48.042Z,100606.88
2023-03-06T05:57:23.850Z,100607.66
2023-03-06T05:57:55.292Z,100609.56
2023-03-06T05:58:27.537Z,100606.09
2023-03-06T05:58:58.958Z,100604.53
2023-03-06T05:59:32.829Z,100599.47
2023-03-06T06:00:05.286Z,100606.44
2023-03-06T06:00:36.643Z,100596.78
2023-03-06T06:01:13.305Z,100599.81
2023-03-06T06:01:45.497Z,100605.28
2023-03-06T06:02:18.303Z,100604.53
2023-03-06T06:02:49.808Z,100607.22
2023-03-06T06:03:21.600Z,100606.09
2023-03-06T06:04:41.850Z,100603.75
2023-03-06T06:05:14.240Z,100608.66
2023-03-06T06:05:46.063Z,100609.44
2023-03-06T06:06:18.444Z,100608.97
2023-03-06T06:06:58.201Z,100610.09
2023-03-06T06:07:29.814Z,100607.25
2023-03-06T06:08:01.341Z,100613.09
2023-03-06T06:08:32.847Z,100604.91
2023-03-06T06:09:04.267Z,100610.75
2023-03-06T06:09:35.639Z,100613.44
2023-03-06T06:10:07.895Z,100614.22
2023-03-06T06:10:39.621Z,100616.91
2023-03-06T06:11:13.139Z,100613.75
2023-03-06T06:11:44.608Z,100614.22
2023-03-06T06:12:16.008Z,100617.69
2023-03-06T06:12:47.407Z,100616.13
2023-03-06T06:13:18.771Z,100612.97
2023-03-06T06:13:50.339Z,100619.91